MSC Chiara — H3RT — position and weather

sailwx.info

Track history (hours):
 
Tides and Currents Weather Stations Pressure Air Temp Water Temp Dewpoint Dewpoint Depression Visibility Wind Speed Wind Dir Waves Ship Positions

MSC Chiara

Last reported at 2015-Apr-01 12:30 UTC. Time now 2015-Apr-01 13:15 UTC.
Position S 29°53' E 031°01'.

Length 197 m; draft 7.7 m.

Type: Ship (hazmat cat A). MMSI: 352398000.

Date/timePositionNaut miles runAvg speedWind from/ knotsBaromVisibWave heightAir tempDewpointWater temp
2015-Apr-01 12:30S 29°53' E 031°01'0 0.0
2015-Apr-01 11:29S 29°53' E 031°01'0 0.0
2015-Apr-01 10:17S 29°53' E 031°01'0 0.0
2015-Apr-01 09:22S 29°53' E 031°01'0 0.0
2015-Apr-01 08:16S 29°53' E 031°01'0 0.0
2015-Apr-01 07:33S 29°53' E 031°01'6 1.9
2015-Apr-01 04:33S 29°50' E 031°07'6 2.1
2015-Apr-01 01:32S 29°50' E 031°15'8 1.3
2015-Mar-31 19:31S 29°48' E 031°23'3 1.4
2015-Mar-31 17:33S 29°48' E 031°26'2 1.6
2015-Mar-31 16:33S 29°48' E 031°28'2 1.7
2015-Mar-31 15:33S 29°47' E 031°26'5 5.1
2015-Mar-31 14:33S 29°44' E 031°22'1 1.3
2015-Mar-31 13:33S 29°44' E 031°24'1 1.3
2015-Mar-31 12:33S 29°44' E 031°25'1 1.2
2015-Mar-31 11:33S 29°45' E 031°26'1 1.1
2015-Mar-31 10:33S 29°45' E 031°27'19 9.4
2015-Mar-31 08:31S 29°28' E 031°38'  
Track history (hours):
 
Tides and Currents Weather Stations Pressure Air Temp Water Temp Dewpoint Dewpoint Depression Visibility Wind Speed Wind Dir Waves Ship Positions

MSC Chiara

Last reported at 2015-Apr-01 12:30 UTC. Time now 2015-Apr-01 13:15 UTC.
Position S 29°53' E 031°01'.

Length 197 m; draft 7.7 m.

Type: Ship (hazmat cat A). MMSI: 352398000.

Date/timePositionNaut miles runAvg speedWind from/ knotsBaromVisibWave heightAir tempDewpointWater temp
2015-Apr-01 12:30S 29°53' E 031°01'0 0.0
2015-Apr-01 11:29S 29°53' E 031°01'0 0.0
2015-Apr-01 10:17S 29°53' E 031°01'0 0.0
2015-Apr-01 09:22S 29°53' E 031°01'0 0.0
2015-Apr-01 08:16S 29°53' E 031°01'0 0.0
2015-Apr-01 07:33S 29°53' E 031°01'6 1.9
2015-Apr-01 04:33S 29°50' E 031°07'6 2.1
2015-Apr-01 01:32S 29°50' E 031°15'8 1.3
2015-Mar-31 19:31S 29°48' E 031°23'3 1.4
2015-Mar-31 17:33S 29°48' E 031°26'2 1.6
2015-Mar-31 16:33S 29°48' E 031°28'2 1.7
2015-Mar-31 15:33S 29°47' E 031°26'5 5.1
2015-Mar-31 14:33S 29°44' E 031°22'1 1.3
2015-Mar-31 13:33S 29°44' E 031°24'1 1.3
2015-Mar-31 12:33S 29°44' E 031°25'1 1.2
2015-Mar-31 11:33S 29°45' E 031°26'1 1.1
2015-Mar-31 10:33S 29°45' E 031°27'19 9.4
2015-Mar-31 08:31S 29°28' E 031°38'  

Dump ship's entire track history